Main page
METAR-TAF:

METAR-TAF

Airports :

Chandigarh International Airport

Chandigarh, India

latitude: 30-40-29N, longitude: 76-47-26E, elevation: 314 m

METAR: missing

Time: 13:21 (07:51 UTC)

Forecast

The report was made 4 hours and 21 minutes ago, at 03:30 UTC
Forecast valid from 30 at 06 UTC to 30 at 18 UTC
Wind 5 kt from the South
Visibility: 5000 m
Scattered clouds at a height of 1500 ft
Broken clouds at a height of 9000 ft
mist
Temporary
from 30 at 06 UTC to 30 at 08 UTC
Few clouds at a height of 3000 ft, Towering cumulus.
light rain, mist
Becoming
from 30 at 09 UTC to 30 at 10 UTC
Wind 10 kt from the South/Southeast
Visibility: 6000 m
Scattered clouds at a height of 2000 ft
Broken clouds at a height of 9000 ft
Becoming
from 30 at 15 UTC to 30 at 17 UTC
Wind 2 kt from variable directions

TAF: VICG 300330Z 3006/3018 17005KT 5000 BR SCT015 BKN090 TEMPO 3006/3008 -RABR FEW030TCU BECMG 3009/3010 16010KT 6000 SCT020 BKN090 BECMG 3015/3017 VRB02KT

Weather observations and forecasts of more than 4000 airports (METAR and TAF reports).

The available stations are represented by yellow and red dots on the map.

Hover mouse over dot to see the name of the station.

Then click to see weather observations and forecasts.

To change the map : click on the green buttons with a black cross to zoom in, on the green button with a dash to zoom out, or on the green arrows for adjacent maps.


METAR-TAF: